createdAt,value
2022-11-05T00:00:38.449Z,79.68
2022-11-05T00:03:24.071Z,79.95
2022-11-05T00:06:12.203Z,79.86
2022-11-05T00:08:59.523Z,80.18
2022-11-05T00:11:46.728Z,80.01
2022-11-05T00:14:32.477Z,79.76
2022-11-05T00:16:59.618Z,79.32
2022-11-05T00:19:26.469Z,79.42
2022-11-05T00:22:12.232Z,79.58
2022-11-05T00:24:57.752Z,79.64
2022-11-05T00:27:24.757Z,79.79
2022-11-05T00:29:52.145Z,79.89
2022-11-05T00:32:19.152Z,80.03
2022-11-05T00:34:46.072Z,80.39
2022-11-05T00:37:13.085Z,80.21
2022-11-05T00:39:40.073Z,80.28
2022-11-05T00:42:25.437Z,80.19
2022-11-05T00:45:01.221Z,80.61
2022-11-05T00:47:47.490Z,81.00
2022-11-05T00:50:15.335Z,81.33
2022-11-05T00:52:57.753Z,81.06
2022-11-05T00:55:35.625Z,81.67
2022-11-05T00:58:04.307Z,81.15
2022-11-05T01:00:33.728Z,81.29
2022-11-05T01:03:02.984Z,80.96
2022-11-05T01:05:31.633Z,81.16
2022-11-05T01:07:58.750Z,81.02
2022-11-05T01:10:26.612Z,80.89
2022-11-05T01:12:53.900Z,81.40
2022-11-05T01:15:21.318Z,81.94
2022-11-05T01:17:48.471Z,81.69
2022-11-05T01:20:16.596Z,82.91
2022-11-05T01:22:43.584Z,83.19
2022-11-05T01:25:10.984Z,83.66
2022-11-05T01:27:38.688Z,84.08
2022-11-05T01:30:07.748Z,82.98
2022-11-05T01:32:36.350Z,83.13
2022-11-05T01:35:05.761Z,82.93
2022-11-05T01:37:32.779Z,83.52
2022-11-05T01:39:59.730Z,83.45
2022-11-05T01:42:28.208Z,85.38
2022-11-05T01:45:07.027Z,85.11
2022-11-05T01:47:57.948Z,85.76
2022-11-05T01:50:52.069Z,86.77
2022-11-05T01:53:26.140Z,87.20
2022-11-05T01:56:02.261Z,87.14
2022-11-05T01:58:34.813Z,87.13
2022-11-05T02:01:02.314Z,87.47
2022-11-05T02:03:30.700Z,87.44
2022-11-05T02:06:01.135Z,87.72
2022-11-05T02:08:56.257Z,88.15
2022-11-05T02:11:23.531Z,88.05
2022-11-05T02:13:51.305Z,87.44
2022-11-05T02:16:46.744Z,90.53
2022-11-05T02:20:03.092Z,90.32
2022-11-05T02:22:35.937Z,88.96
2022-11-05T02:25:21.436Z,88.65
2022-11-05T02:28:22.449Z,89.22
2022-11-05T02:31:15.545Z,89.32
2022-11-05T02:33:47.799Z,90.35
2022-11-05T02:36:31.531Z,90.47
2022-11-05T02:38:58.446Z,90.96
2022-11-05T02:41:35.804Z,90.91
2022-11-05T02:44:14.593Z,92.82
2022-11-05T02:47:18.186Z,91.96
2022-11-05T02:50:06.934Z,92.28
2022-11-05T02:52:45.320Z,90.87
2022-11-05T02:55:23.128Z,91.70
2022-11-05T02:57:50.115Z,91.68
2022-11-05T03:00:49.724Z,90.59
2022-11-05T03:03:34.891Z,91.36
2022-11-05T03:06:31.374Z,90.93
2022-11-05T03:09:01.169Z,90.42
2022-11-05T03:11:31.307Z,90.17
2022-11-05T03:14:36.421Z,90.64
2022-11-05T03:17:26.256Z,90.76
2022-11-05T03:20:12.639Z,92.21
2022-11-05T03:22:47.694Z,93.84
2022-11-05T03:25:21.506Z,94.65
2022-11-05T03:27:54.782Z,95.79
2022-11-05T03:30:22.091Z,96.32
2022-11-05T03:32:57.102Z,97.70
2022-11-05T03:35:30.937Z,98.07
2022-11-05T03:38:05.589Z,98.16
2022-11-05T03:40:35.454Z,98.58
2022-11-05T03:43:06.672Z,99.38
2022-11-05T03:45:38.753Z,100.00
2022-11-05T03:48:10.481Z,100.00
2022-11-05T03:50:47.098Z,100.00
2022-11-05T03:53:18.614Z,100.00
2022-11-05T03:56:00.010Z,100.00
2022-11-05T03:58:28.895Z,100.00
2022-11-05T04:00:55.925Z,100.00
2022-11-05T04:03:22.865Z,100.00
2022-11-05T04:06:11.688Z,100.00
2022-11-05T04:08:59.541Z,100.00
2022-11-05T04:11:44.858Z,100.00
2022-11-05T04:14:11.787Z,100.00
2022-11-05T04:16:57.426Z,100.00
2022-11-05T04:19:42.853Z,100.00
2022-11-05T04:22:28.498Z,100.00
2022-11-05T04:24:55.479Z,100.00
2022-11-05T04:27:22.404Z,100.00
2022-11-05T04:30:07.749Z,100.00
2022-11-05T04:32:34.698Z,100.00
2022-11-05T04:35:01.642Z,100.00
2022-11-05T04:37:28.571Z,100.00
2022-11-05T04:39:55.585Z,100.00
2022-11-05T04:42:22.460Z,100.00
2022-11-05T04:44:49.414Z,100.00
2022-11-05T04:47:16.348Z,100.00
2022-11-05T04:49:43.243Z,100.00
2022-11-05T04:52:10.125Z,100.00
2022-11-05T04:54:37.015Z,100.00
2022-11-05T04:57:04.036Z,100.00
2022-11-05T04:59:30.988Z,100.00
2022-11-05T05:01:57.984Z,100.00
2022-11-05T05:04:24.974Z,100.00
2022-11-05T05:06:51.956Z,100.00
2022-11-05T05:09:18.856Z,100.00
2022-11-05T05:11:45.749Z,100.00
2022-11-05T05:14:12.749Z,100.00
2022-11-05T05:16:39.673Z,100.00
2022-11-05T05:19:06.570Z,100.00
2022-11-05T05:21:39.510Z,100.00
2022-11-05T05:24:18.863Z,100.00
2022-11-05T05:26:48.311Z,100.00
2022-11-05T05:29:15.665Z,100.00
2022-11-05T05:31:42.924Z,100.00
2022-11-05T05:34:14.500Z,100.00
2022-11-05T05:36:41.499Z,100.00
2022-11-05T05:39:10.958Z,100.00
2022-11-05T05:41:38.264Z,100.00
2022-11-05T05:44:06.344Z,100.00
2022-11-05T05:46:33.554Z,100.00
2022-11-05T05:49:00.599Z,100.00
2022-11-05T05:51:27.587Z,100.00
2022-11-05T05:53:55.026Z,100.00
2022-11-05T05:56:21.939Z,100.00
2022-11-05T05:58:48.960Z,100.00
2022-11-05T06:01:19.765Z,100.00
2022-11-05T06:03:48.602Z,100.00
2022-11-05T06:06:19.838Z,100.00
2022-11-05T06:08:47.722Z,100.00
2022-11-05T06:11:15.288Z,100.00
2022-11-05T06:13:42.352Z,100.00
2022-11-05T06:16:10.476Z,100.00
2022-11-05T06:18:37.974Z,100.00
2022-11-05T06:21:10.037Z,100.00
2022-11-05T06:23:38.995Z,100.00
2022-11-05T06:26:09.024Z,100.00
2022-11-05T06:28:36.158Z,100.00
2022-11-05T06:31:04.113Z,100.00
2022-11-05T06:33:31.156Z,100.00
2022-11-05T06:36:02.834Z,99.97
2022-11-05T06:38:33.268Z,99.58
2022-11-05T06:41:04.586Z,100.00
2022-11-05T06:43:36.089Z,100.00
2022-11-05T06:46:03.237Z,99.81
2022-11-05T06:48:30.246Z,99.42
2022-11-05T06:50:59.232Z,99.72
2022-11-05T06:54:00.276Z,100.00
2022-11-05T06:56:27.073Z,96.02
2022-11-05T06:58:53.856Z,93.82
2022-11-05T07:01:20.817Z,93.26
2022-11-05T07:03:49.082Z,92.75
2022-11-05T07:06:16.143Z,92.57
2022-11-05T07:08:42.935Z,92.40
2022-11-05T07:11:09.734Z,91.94
2022-11-05T07:13:36.511Z,91.65
2022-11-05T07:16:03.439Z,91.88
2022-11-05T07:18:30.320Z,91.36
2022-11-05T07:20:59.440Z,90.03
2022-11-05T07:23:26.550Z,89.25
2022-11-05T07:25:53.397Z,88.62
2022-11-05T07:28:20.226Z,87.71
2022-11-05T07:30:48.272Z,87.79
2022-11-05T07:33:15.814Z,87.77
2022-11-05T07:35:43.666Z,88.32
2022-11-05T07:38:11.242Z,88.09
2022-11-05T07:40:38.536Z,88.67
2022-11-05T07:43:05.442Z,89.29
2022-11-05T07:45:32.332Z,89.51
2022-11-05T07:48:01.620Z,89.01
2022-11-05T07:50:32.131Z,88.36
2022-11-05T07:53:07.234Z,87.54
2022-11-05T07:55:35.525Z,87.22
2022-11-05T07:58:02.278Z,86.33
2022-11-05T08:00:31.262Z,85.71
2022-11-05T08:03:10.712Z,85.45
2022-11-05T08:05:40.995Z,85.48
2022-11-05T08:08:09.375Z,85.07
2022-11-05T08:10:37.683Z,84.77
2022-11-05T08:13:06.339Z,84.70
2022-11-05T08:15:34.590Z,84.41
2022-11-05T08:18:04.495Z,84.87
2022-11-05T08:20:32.466Z,85.28
2022-11-05T08:22:59.781Z,86.21
2022-11-05T08:25:27.204Z,85.88
2022-11-05T08:28:22.496Z,84.94
2022-11-05T08:30:51.365Z,84.75
2022-11-05T08:33:18.418Z,84.27
2022-11-05T08:35:46.544Z,84.10
2022-11-05T08:38:17.167Z,84.57
2022-11-05T08:40:53.735Z,83.79
2022-11-05T08:43:21.486Z,84.02
2022-11-05T08:45:48.500Z,84.05
2022-11-05T08:48:18.735Z,83.55
2022-11-05T08:50:47.662Z,83.04
2022-11-05T08:53:16.266Z,81.92
2022-11-05T08:55:45.255Z,80.91
2022-11-05T08:58:17.500Z,80.58
2022-11-05T09:00:48.075Z,80.83
2022-11-05T09:03:15.807Z,80.32
2022-11-05T09:05:43.300Z,79.85
2022-11-05T09:08:13.627Z,79.64
2022-11-05T09:10:42.105Z,79.28
2022-11-05T09:13:16.652Z,79.09
2022-11-05T09:15:48.101Z,80.25
2022-11-05T09:18:15.818Z,78.93
2022-11-05T09:20:42.789Z,78.88
2022-11-05T09:23:11.969Z,78.69
2022-11-05T09:25:39.187Z,77.65
2022-11-05T09:28:17.626Z,77.67
2022-11-05T09:30:47.611Z,77.58
2022-11-05T09:33:14.803Z,78.16
2022-11-05T09:35:43.211Z,77.48
2022-11-05T09:38:10.034Z,76.48
2022-11-05T09:40:41.757Z,75.13
2022-11-05T09:43:17.145Z,74.70
2022-11-05T09:45:46.537Z,75.33
2022-11-05T09:48:18.264Z,74.99
2022-11-05T09:50:46.622Z,74.53
2022-11-05T09:53:16.581Z,73.18
2022-11-05T09:55:47.415Z,71.81
2022-11-05T09:58:52.078Z,72.22
2022-11-05T10:01:31.785Z,72.62
2022-11-05T10:04:01.976Z,71.76
2022-11-05T10:06:29.446Z,71.17
2022-11-05T10:09:12.735Z,70.12
2022-11-05T10:11:47.924Z,69.26
2022-11-05T10:14:24.875Z,68.64
2022-11-05T10:16:59.205Z,68.99
2022-11-05T10:19:31.201Z,68.58
2022-11-05T10:22:20.994Z,67.73
2022-11-05T10:24:51.621Z,67.57
2022-11-05T10:27:38.925Z,66.28
2022-11-05T10:30:06.289Z,66.76
2022-11-05T10:32:40.617Z,67.12
2022-11-05T10:35:11.752Z,66.42
2022-11-05T10:37:41.048Z,66.01
2022-11-05T10:40:15.953Z,64.80
2022-11-05T10:42:51.896Z,63.75
2022-11-05T10:45:44.895Z,60.25
2022-11-05T10:48:20.701Z,61.46
2022-11-05T10:50:49.031Z,61.64
2022-11-05T10:53:24.097Z,60.60
2022-11-05T10:55:52.287Z,60.42
2022-11-05T10:58:22.680Z,59.66
2022-11-05T11:00:52.385Z,58.56
2022-11-05T11:03:46.189Z,58.27
2022-11-05T11:06:26.835Z,56.63
2022-11-05T11:09:00.111Z,57.74
2022-11-05T11:11:35.755Z,55.34
2022-11-05T11:14:02.580Z,56.00
2022-11-05T11:16:35.748Z,55.34
2022-11-05T11:19:03.355Z,55.47
2022-11-05T11:21:32.468Z,54.29
2022-11-05T11:24:06.667Z,50.91
2022-11-05T11:26:37.220Z,53.14
2022-11-05T11:29:28.624Z,56.58
2022-11-05T11:31:57.340Z,55.90
2022-11-05T11:34:35.574Z,52.82
2022-11-05T11:37:12.837Z,54.49
2022-11-05T11:39:47.352Z,54.48
2022-11-05T11:42:27.469Z,48.71
2022-11-05T11:44:54.539Z,50.94
2022-11-05T11:47:22.631Z,51.93
2022-11-05T11:49:54.831Z,51.27
2022-11-05T11:52:36.879Z,50.10
2022-11-05T11:55:12.922Z,47.86
2022-11-05T11:58:04.843Z,48.24
2022-11-05T12:00:36.864Z,49.51
2022-11-05T12:03:14.159Z,47.02
2022-11-05T12:05:46.748Z,48.22
2022-11-05T12:08:31.877Z,46.13
2022-11-05T12:11:29.570Z,47.83
2022-11-05T12:14:02.296Z,46.34
2022-11-05T12:16:42.174Z,46.85
2022-11-05T12:19:24.216Z,48.73
2022-11-05T12:22:03.130Z,46.21
2022-11-05T12:24:45.240Z,47.67
2022-11-05T12:27:21.067Z,47.31
2022-11-05T12:30:05.738Z,47.80
2022-11-05T12:32:53.335Z,45.53
2022-11-05T12:35:35.236Z,45.04
2022-11-05T12:38:13.783Z,47.35
2022-11-05T12:40:59.028Z,47.61
2022-11-05T12:43:38.024Z,48.63
2022-11-05T12:46:10.863Z,50.11
2022-11-05T12:49:07.611Z,50.45
2022-11-05T12:52:25.402Z,49.28
2022-11-05T12:54:59.813Z,49.08
2022-11-05T12:57:29.876Z,49.08
2022-11-05T13:00:06.809Z,47.50
2022-11-05T13:02:40.802Z,47.56
2022-11-05T13:05:21.846Z,45.47
2022-11-05T13:08:00.419Z,47.46
2022-11-05T13:10:57.347Z,45.97
2022-11-05T13:13:27.038Z,48.36
2022-11-05T13:15:59.315Z,48.04
2022-11-05T13:18:31.743Z,48.13
2022-11-05T13:21:02.278Z,49.57
2022-11-05T13:23:35.750Z,49.57
2022-11-05T13:26:13.410Z,49.73
2022-11-05T13:28:43.950Z,50.60
2022-11-05T13:31:17.542Z,50.74
2022-11-05T13:33:48.348Z,51.39
2022-11-05T13:36:46.007Z,52.36
2022-11-05T13:39:31.994Z,51.58
2022-11-05T13:42:10.108Z,51.58
2022-11-05T13:45:10.726Z,52.70
2022-11-05T13:47:49.739Z,54.02
2022-11-05T13:50:31.470Z,53.16
2022-11-05T13:53:02.557Z,53.95
2022-11-05T13:55:38.207Z,53.65
2022-11-05T13:58:14.057Z,53.18
2022-11-05T14:01:01.288Z,53.69
2022-11-05T14:03:28.734Z,53.79
2022-11-05T14:06:08.226Z,54.22
2022-11-05T14:08:45.353Z,54.79
2022-11-05T14:11:25.278Z,54.46
2022-11-05T14:13:57.163Z,54.40
2022-11-05T14:16:26.808Z,54.67
2022-11-05T14:19:27.056Z,54.91
2022-11-05T14:21:55.654Z,54.76
2022-11-05T14:24:38.934Z,55.21
2022-11-05T14:27:05.710Z,54.96
2022-11-05T14:29:41.598Z,54.99
2022-11-05T14:32:17.284Z,56.35
2022-11-05T14:35:04.124Z,55.75
2022-11-05T14:37:39.568Z,55.98
2022-11-05T14:40:21.497Z,56.35
2022-11-05T14:43:17.494Z,56.02
2022-11-05T14:46:06.212Z,56.53
2022-11-05T14:48:41.172Z,56.89
2022-11-05T14:51:23.366Z,57.13
2022-11-05T14:53:50.493Z,57.42
2022-11-05T14:56:19.476Z,57.30
2022-11-05T14:58:46.796Z,57.01
2022-11-05T15:01:13.633Z,57.11
2022-11-05T15:03:45.799Z,57.46
2022-11-05T15:06:25.008Z,57.88
2022-11-05T15:08:59.005Z,57.48
2022-11-05T15:11:33.665Z,57.62
2022-11-05T15:14:24.348Z,58.24
2022-11-05T15:17:09.472Z,57.86
2022-11-05T15:19:39.036Z,57.82
2022-11-05T15:22:16.293Z,58.10
2022-11-05T15:24:43.156Z,58.33
2022-11-05T15:27:25.418Z,58.55
2022-11-05T15:29:52.430Z,58.74
2022-11-05T15:32:25.404Z,58.37
2022-11-05T15:34:54.617Z,58.41
2022-11-05T15:37:26.637Z,58.64
2022-11-05T15:39:55.215Z,58.79
2022-11-05T15:42:24.746Z,58.66
2022-11-05T15:44:53.887Z,59.43
2022-11-05T15:47:22.579Z,59.26
2022-11-05T15:49:58.490Z,59.56
2022-11-05T15:52:36.648Z,59.63
2022-11-05T15:55:24.926Z,60.37
2022-11-05T15:57:59.309Z,60.07
2022-11-05T16:00:32.127Z,60.58
2022-11-05T16:03:03.195Z,61.04
2022-11-05T16:05:33.636Z,61.15
2022-11-05T16:08:02.015Z,61.33
2022-11-05T16:10:31.567Z,61.88
2022-11-05T16:13:18.339Z,61.68
2022-11-05T16:15:54.831Z,62.01
2022-11-05T16:18:24.875Z,62.38
2022-11-05T16:21:17.701Z,63.09
2022-11-05T16:23:57.579Z,63.46
2022-11-05T16:29:33.870Z,63.71
2022-11-05T16:32:04.285Z,63.84
2022-11-05T16:34:39.703Z,64.04
2022-11-05T16:37:11.114Z,64.74
2022-11-05T16:39:38.464Z,64.93
2022-11-05T16:42:26.147Z,65.60
2022-11-05T16:44:55.281Z,68.40
2022-11-05T16:47:22.995Z,68.59
2022-11-05T16:49:50.609Z,69.26
2022-11-05T16:52:18.276Z,68.37
2022-11-05T16:54:45.463Z,67.76
2022-11-05T16:57:38.753Z,67.96
2022-11-05T17:00:06.763Z,67.45
2022-11-05T17:02:33.675Z,67.29
2022-11-05T17:05:00.629Z,67.33
2022-11-05T17:07:27.424Z,67.10
2022-11-05T17:09:56.048Z,66.93
2022-11-05T17:12:22.883Z,66.71
2022-11-05T17:14:49.791Z,67.06
2022-11-05T17:17:16.657Z,67.25
2022-11-05T17:19:43.804Z,67.51
2022-11-05T17:22:10.649Z,67.49
2022-11-05T17:24:38.956Z,67.09
2022-11-05T17:27:05.869Z,67.51
2022-11-05T17:29:32.690Z,66.81
2022-11-05T17:31:59.598Z,66.77
2022-11-05T17:34:26.602Z,66.93
2022-11-05T17:36:53.669Z,66.65
2022-11-05T17:39:20.677Z,66.54
2022-11-05T17:41:47.969Z,67.25
2022-11-05T17:44:14.954Z,67.12
2022-11-05T17:46:41.796Z,67.39
2022-11-05T17:49:08.686Z,67.45
2022-11-05T17:51:35.528Z,67.23
2022-11-05T17:54:02.449Z,67.10
2022-11-05T17:56:34.925Z,67.43
2022-11-05T17:59:03.608Z,67.39
2022-11-05T18:01:33.575Z,67.22
2022-11-05T18:04:07.142Z,67.37
2022-11-05T18:06:37.296Z,67.51
2022-11-05T18:09:06.248Z,67.76
2022-11-05T18:11:34.747Z,67.74
2022-11-05T18:14:02.084Z,67.90
2022-11-05T18:16:28.923Z,68.00
2022-11-05T18:18:56.124Z,68.26
2022-11-05T18:21:23.136Z,68.33
2022-11-05T18:23:49.966Z,68.61
2022-11-05T18:26:17.558Z,68.88
2022-11-05T18:28:45.364Z,68.96
2022-11-05T18:31:18.044Z,69.40
2022-11-05T18:33:45.529Z,69.21
2022-11-05T18:36:24.092Z,69.32
2022-11-05T18:38:51.440Z,69.27
2022-11-05T18:41:19.199Z,69.45
2022-11-05T18:43:47.083Z,69.78
2022-11-05T18:46:35.950Z,70.09
2022-11-05T18:49:01.830Z,70.73
2022-11-05T18:51:28.940Z,71.85
2022-11-05T18:53:56.485Z,75.22
2022-11-05T18:56:23.889Z,74.91
2022-11-05T18:59:14.623Z,75.66
2022-11-05T19:01:40.973Z,74.81
2022-11-05T19:04:07.941Z,74.43
2022-11-05T19:06:35.721Z,73.62
2022-11-05T19:09:04.457Z,73.03
2022-11-05T19:11:31.356Z,73.04
2022-11-05T19:13:58.507Z,72.64
2022-11-05T19:16:27.545Z,72.31
2022-11-05T19:18:57.497Z,72.28
2022-11-05T19:21:26.251Z,71.94
2022-11-05T19:23:53.610Z,71.71
2022-11-05T19:26:28.197Z,71.61
2022-11-05T19:28:57.957Z,71.74
2022-11-05T19:31:25.045Z,71.36
2022-11-05T19:33:52.777Z,71.31
2022-11-05T19:36:21.210Z,71.07
2022-11-05T19:38:52.482Z,71.07
2022-11-05T19:41:19.514Z,71.20
2022-11-05T19:43:46.864Z,71.07
2022-11-05T19:46:16.642Z,70.96
2022-11-05T19:48:44.311Z,71.03
2022-11-05T19:51:15.436Z,70.84
2022-11-05T19:53:42.989Z,70.72
2022-11-05T19:56:21.769Z,70.76
2022-11-05T19:58:49.424Z,70.70
2022-11-05T20:01:18.285Z,70.52
2022-11-05T20:03:45.401Z,70.34
2022-11-05T20:06:25.791Z,70.26
2022-11-05T20:09:20.059Z,70.32
2022-11-05T20:11:40.781Z,70.67
2022-11-05T20:14:10.058Z,70.70
2022-11-05T20:16:39.118Z,71.01
2022-11-05T20:19:08.947Z,70.86
2022-11-05T20:21:35.913Z,70.86
2022-11-05T20:24:02.814Z,70.72
2022-11-05T20:26:30.159Z,70.34
2022-11-05T20:28:57.254Z,70.23
2022-11-05T20:31:24.301Z,70.11
2022-11-05T20:33:53.895Z,70.17
2022-11-05T20:36:24.894Z,70.11
2022-11-05T20:38:55.390Z,69.99
2022-11-05T20:41:23.132Z,69.95
2022-11-05T20:43:50.540Z,69.93
2022-11-05T20:46:19.713Z,70.04
2022-11-05T20:48:46.798Z,70.09
2022-11-05T20:51:16.456Z,70.55
2022-11-05T20:53:44.456Z,70.17
2022-11-05T20:56:23.612Z,70.25
2022-11-05T20:58:50.907Z,70.33
2022-11-05T21:01:18.907Z,70.30
2022-11-05T21:03:47.012Z,70.38
2022-11-05T21:06:14.666Z,70.86
2022-11-05T21:08:41.767Z,70.85
2022-11-05T21:11:10.294Z,70.96
2022-11-05T21:13:37.212Z,70.88
2022-11-05T21:16:06.886Z,70.93
2022-11-05T21:18:36.442Z,71.09
2022-11-05T21:21:08.726Z,71.75
2022-11-05T21:23:35.699Z,72.68
2022-11-05T21:26:06.771Z,73.51
2022-11-05T21:28:34.482Z,74.52
2022-11-05T21:31:03.617Z,74.57
2022-11-05T21:33:30.926Z,75.02
2022-11-05T21:35:57.888Z,76.26
2022-11-05T21:38:25.507Z,77.08
2022-11-05T21:40:53.572Z,77.63
2022-11-05T21:43:20.455Z,77.93
2022-11-05T21:45:48.469Z,78.30
2022-11-05T21:48:15.788Z,78.54
2022-11-05T21:51:01.676Z,79.17
2022-11-05T21:53:47.151Z,80.08
2022-11-05T21:56:39.708Z,81.08
2022-11-05T21:59:25.063Z,82.24
2022-11-05T22:02:01.407Z,82.57
2022-11-05T22:04:36.987Z,82.86
2022-11-05T22:07:04.986Z,82.90
2022-11-05T22:09:32.205Z,83.36
2022-11-05T22:11:59.889Z,83.99
2022-11-05T22:14:27.040Z,84.21
2022-11-05T22:16:54.563Z,84.18
2022-11-05T22:19:22.559Z,84.86
2022-11-05T22:21:49.603Z,85.23
2022-11-05T22:24:16.693Z,85.72
2022-11-05T22:26:44.607Z,86.33
2022-11-05T22:29:12.323Z,86.09
2022-11-05T22:31:39.477Z,86.85
2022-11-05T22:34:07.127Z,87.20
2022-11-05T22:36:35.090Z,87.18
2022-11-05T22:39:02.654Z,87.52
2022-11-05T22:41:30.064Z,88.00
2022-11-05T22:43:57.672Z,88.54
2022-11-05T22:46:26.380Z,89.07
2022-11-05T22:48:53.633Z,88.95
2022-11-05T22:51:29.192Z,89.15
2022-11-05T22:53:56.486Z,89.17
2022-11-05T22:56:26.000Z,88.76
2022-11-05T22:58:53.470Z,89.51
2022-11-05T23:01:22.073Z,89.41
2022-11-05T23:03:50.945Z,89.28
2022-11-05T23:06:40.725Z,89.81
2022-11-05T23:09:38.781Z,90.04
2022-11-05T23:12:07.716Z,91.95
2022-11-05T23:14:36.360Z,90.28
2022-11-05T23:17:22.074Z,90.88
2022-11-05T23:20:07.326Z,90.88
2022-11-05T23:22:52.734Z,91.29
2022-11-05T23:25:22.489Z,92.92
2022-11-05T23:27:51.845Z,92.69
2022-11-05T23:30:21.444Z,93.63
2022-11-05T23:32:49.144Z,93.17
2022-11-05T23:35:16.344Z,94.03
2022-11-05T23:38:02.069Z,94.08
2022-11-05T23:40:31.185Z,93.69
2022-11-05T23:43:16.593Z,93.87
2022-11-05T23:46:03.296Z,92.90
2022-11-05T23:48:35.030Z,92.12
2022-11-05T23:51:10.303Z,91.71
2022-11-05T23:53:40.671Z,91.31
2022-11-05T23:56:13.889Z,91.16
2022-11-05T23:58:41.790Z,90.43
